createdAt,value
2019-04-29T00:00:40.000Z,5.3
2019-04-29T00:04:13.000Z,7
2019-04-29T00:09:59.000Z,5.2
2019-04-29T00:13:35.000Z,6.3
2019-04-29T00:17:13.000Z,7.5
2019-04-29T00:20:46.000Z,5.5
2019-04-29T00:24:21.000Z,4.7
2019-04-29T00:27:58.000Z,8.1
2019-04-29T00:31:38.000Z,4.7
2019-04-29T00:35:18.000Z,5.7
2019-04-29T00:38:53.000Z,5
2019-04-29T00:42:34.000Z,6
2019-04-29T00:46:17.000Z,4.2
2019-04-29T00:49:52.000Z,5.1
2019-04-29T00:53:30.000Z,7.1
2019-04-29T00:57:10.000Z,7.8
2019-04-29T01:00:49.000Z,5.6
2019-04-29T01:04:28.000Z,7
2019-04-29T01:08:10.000Z,5.3
2019-04-29T01:11:54.000Z,6.2
2019-04-29T01:15:35.000Z,5
2019-04-29T01:19:14.000Z,7.3
2019-04-29T01:22:54.000Z,6.3
2019-04-29T01:26:36.000Z,6
2019-04-29T01:37:37.000Z,4.8
2019-04-29T01:41:00.000Z,6.9
2019-04-29T01:44:23.000Z,9.3
2019-04-29T01:47:46.000Z,8.8
2019-04-29T01:51:09.000Z,6.2
2019-04-29T01:54:35.000Z,6.1
2019-04-29T01:58:00.000Z,5
2019-04-29T02:01:24.000Z,4.3
2019-04-29T02:04:48.000Z,6
2019-04-29T02:08:12.000Z,7.1
2019-04-29T02:11:37.000Z,5.7
2019-04-29T02:15:00.000Z,7.2
2019-04-29T02:18:23.000Z,5.5
2019-04-29T02:21:46.000Z,6.1
2019-04-29T02:25:11.000Z,6.2
2019-04-29T02:28:34.000Z,9
2019-04-29T02:31:59.000Z,5
2019-04-29T02:35:22.000Z,7
2019-04-29T02:38:46.000Z,5.6
2019-04-29T02:42:09.000Z,5.8
2019-04-29T02:45:34.000Z,7.7
2019-04-29T02:48:58.000Z,7.6
2019-04-29T02:52:23.000Z,6.3
2019-04-29T02:55:47.000Z,8.2
2019-04-29T02:59:11.000Z,5.8
2019-04-29T03:02:35.000Z,8.1
2019-04-29T03:05:59.000Z,6.1
2019-04-29T03:09:23.000Z,7.5
2019-04-29T03:12:46.000Z,6.4
2019-04-29T03:16:12.000Z,4.5
2019-04-29T03:19:36.000Z,6.5
2019-04-29T03:23:01.000Z,7.3
2019-04-29T03:26:27.000Z,7.1
2019-04-29T03:29:52.000Z,8.7
2019-04-29T03:33:21.000Z,5.8
2019-04-29T03:36:46.000Z,5.9
2019-04-29T03:40:14.000Z,7.3
2019-04-29T03:43:46.000Z,7.1
2019-04-29T03:47:11.000Z,6.8
2019-04-29T03:50:40.000Z,5.7
2019-04-29T03:54:05.000Z,5
2019-04-29T03:57:34.000Z,5.7
2019-04-29T04:01:09.000Z,7.7
2019-04-29T04:04:37.000Z,4.7
2019-04-29T04:08:10.000Z,7.3
2019-04-29T04:11:37.000Z,5.8
2019-04-29T04:15:11.000Z,7
2019-04-29T04:18:41.000Z,8.2
2019-04-29T04:22:14.000Z,6
2019-04-29T04:25:47.000Z,7.1
2019-04-29T04:29:14.000Z,7.2
2019-04-29T04:32:44.000Z,7.9
2019-04-29T04:36:11.000Z,9.3
2019-04-29T04:39:48.000Z,6
2019-04-29T04:43:18.000Z,7.4
2019-04-29T04:46:49.000Z,8.5
2019-04-29T04:50:29.000Z,7.5
2019-04-29T04:54:01.000Z,5.3
2019-04-29T04:57:42.000Z,5.1
2019-04-29T05:01:16.000Z,7.3
2019-04-29T05:04:43.000Z,7.7
2019-04-29T05:08:17.000Z,5.4
2019-04-29T05:11:49.000Z,7.3
2019-04-29T05:15:27.000Z,6.3
2019-04-29T05:19:02.000Z,10.6
2019-04-29T05:22:39.000Z,7.5
2019-04-29T05:26:16.000Z,6
2019-04-29T05:29:54.000Z,5.7
2019-04-29T05:33:26.000Z,9.3
2019-04-29T05:37:08.000Z,6.3
2019-04-29T05:40:53.000Z,8.6
2019-04-29T05:44:34.000Z,8.5
2019-04-29T05:48:15.000Z,7.3
2019-04-29T05:52:02.000Z,8.5
2019-04-29T05:55:40.000Z,8.9
2019-04-29T05:59:16.000Z,8.3
2019-04-29T06:02:55.000Z,10.2
2019-04-29T06:06:33.000Z,7.6
2019-04-29T06:10:12.000Z,10.4
2019-04-29T06:13:55.000Z,13.5
2019-04-29T06:17:34.000Z,11
2019-04-29T06:21:20.000Z,12.6
2019-04-29T06:30:16.000Z,10.4
2019-04-29T06:33:39.000Z,14.4
2019-04-29T06:37:08.000Z,10.8
2019-04-29T06:40:34.000Z,11.8
2019-04-29T06:43:57.000Z,17
2019-04-29T06:47:28.000Z,14.7
2019-04-29T06:51:03.000Z,10.7
2019-04-29T06:54:26.000Z,15.2
2019-04-29T06:57:53.000Z,12.1
2019-04-29T07:01:16.000Z,11.3
2019-04-29T07:04:45.000Z,10.4
2019-04-29T07:08:08.000Z,9.5
2019-04-29T07:11:32.000Z,12
2019-04-29T07:14:57.000Z,13.1
2019-04-29T07:18:28.000Z,9.8
2019-04-29T07:21:57.000Z,10.2
2019-04-29T07:25:22.000Z,13.1
2019-04-29T07:28:57.000Z,11.7
2019-04-29T07:32:26.000Z,10.2
2019-04-29T07:35:54.000Z,18.2
2019-04-29T07:39:29.000Z,12.9
2019-04-29T07:42:52.000Z,17.6
2019-04-29T07:46:37.000Z,18
2019-04-29T07:50:14.000Z,18.8
2019-04-29T07:53:44.000Z,19.7
2019-04-29T07:57:11.000Z,23.5
2019-04-29T08:00:35.000Z,19.1
2019-04-29T08:04:08.000Z,24.4
2019-04-29T08:07:37.000Z,20.8
2019-04-29T08:11:04.000Z,18.5
2019-04-29T08:14:30.000Z,19.6
2019-04-29T08:17:57.000Z,19.3
2019-04-29T08:21:29.000Z,19.2
2019-04-29T08:25:00.000Z,19.9
2019-04-29T08:28:34.000Z,24.8
2019-04-29T08:32:06.000Z,19.2
2019-04-29T08:35:43.000Z,19.5
2019-04-29T08:39:11.000Z,21.2
2019-04-29T08:42:48.000Z,20.8
2019-04-29T08:46:19.000Z,21.9
2019-04-29T08:49:54.000Z,21.4
2019-04-29T08:53:25.000Z,18.6
2019-04-29T08:56:56.000Z,15.7
2019-04-29T09:00:25.000Z,14.6
2019-04-29T09:03:57.000Z,18.6
2019-04-29T09:07:26.000Z,17.8
2019-04-29T09:11:02.000Z,20.5
2019-04-29T09:14:34.000Z,19.6
2019-04-29T09:18:05.000Z,16.9
2019-04-29T09:21:33.000Z,16.9
2019-04-29T09:25:06.000Z,16.3
2019-04-29T09:28:41.000Z,11.8
2019-04-29T09:32:14.000Z,15.3
2019-04-29T09:36:00.000Z,12.7
2019-04-29T09:39:41.000Z,14.8
2019-04-29T09:43:11.000Z,12.5
2019-04-29T09:46:49.000Z,11
2019-04-29T09:50:27.000Z,15
2019-04-29T09:54:07.000Z,9.9
2019-04-29T09:57:47.000Z,13
2019-04-29T10:01:15.000Z,14.6
2019-04-29T10:04:50.000Z,13.5
2019-04-29T10:08:24.000Z,12.6
2019-04-29T10:12:00.000Z,15.6
2019-04-29T10:15:34.000Z,16.3
2019-04-29T10:19:15.000Z,14.5
2019-04-29T10:22:47.000Z,16.7
2019-04-29T10:26:23.000Z,11.8
2019-04-29T10:30:05.000Z,15.8
2019-04-29T10:33:45.000Z,16.6
2019-04-29T10:37:32.000Z,15.9
2019-04-29T10:41:07.000Z,14.2
2019-04-29T10:44:51.000Z,12.1
2019-04-29T10:48:34.000Z,14.5
2019-04-29T10:52:07.000Z,15.1
2019-04-29T10:55:57.000Z,17.1
2019-04-29T10:59:38.000Z,13.9
2019-04-29T11:03:17.000Z,13.2
2019-04-29T11:06:55.000Z,17.5
2019-04-29T11:10:47.000Z,15.1
2019-04-29T11:14:31.000Z,17.1
2019-04-29T11:18:14.000Z,16.5
2019-04-29T11:27:11.000Z,12.4
2019-04-29T11:30:34.000Z,13.2
2019-04-29T11:33:57.000Z,16.1
2019-04-29T11:37:23.000Z,13.7
2019-04-29T11:40:47.000Z,15
2019-04-29T11:44:10.000Z,14.1
2019-04-29T11:47:33.000Z,12.6
2019-04-29T11:50:57.000Z,15.4
2019-04-29T11:54:22.000Z,14.8
2019-04-29T11:57:51.000Z,15.5
2019-04-29T12:01:14.000Z,16.5
2019-04-29T12:04:39.000Z,17.4
2019-04-29T12:08:04.000Z,19
2019-04-29T12:11:33.000Z,19.1
2019-04-29T12:14:57.000Z,14.9
2019-04-29T12:18:20.000Z,16.4
2019-04-29T12:21:43.000Z,16.3
2019-04-29T12:25:10.000Z,15.6
2019-04-29T12:28:37.000Z,16.2
2019-04-29T12:32:01.000Z,14.1
2019-04-29T12:35:31.000Z,14.6
2019-04-29T12:39:07.000Z,12.3
2019-04-29T12:42:35.000Z,13.3
2019-04-29T12:45:59.000Z,14.7
2019-04-29T12:49:27.000Z,11.3
2019-04-29T12:52:53.000Z,9.7
2019-04-29T12:56:17.000Z,9.5
2019-04-29T12:59:47.000Z,10.7
2019-04-29T13:03:11.000Z,11.3
2019-04-29T13:06:44.000Z,11.3
2019-04-29T13:10:14.000Z,11.9
2019-04-29T13:13:45.000Z,12.2
2019-04-29T13:17:17.000Z,10.2
2019-04-29T13:20:50.000Z,10.6
2019-04-29T13:24:30.000Z,11.4
2019-04-29T13:28:03.000Z,11.4
2019-04-29T13:31:31.000Z,10.6
2019-04-29T13:35:06.000Z,10.8
2019-04-29T13:38:35.000Z,10
2019-04-29T13:42:00.000Z,9.3
2019-04-29T13:45:31.000Z,8.9
2019-04-29T13:48:57.000Z,10.9
2019-04-29T13:52:39.000Z,12.1
2019-04-29T13:56:11.000Z,12.1
2019-04-29T14:00:09.000Z,13.9
2019-04-29T14:03:59.000Z,14.1
2019-04-29T14:07:37.000Z,14.8
2019-04-29T14:11:25.000Z,14.7
2019-04-29T14:15:16.000Z,13.8
2019-04-29T14:19:17.000Z,12.6
2019-04-29T14:23:06.000Z,13.1
2019-04-29T14:26:37.000Z,11.3
2019-04-29T14:30:19.000Z,13.2
2019-04-29T14:34:03.000Z,15.7
2019-04-29T14:37:44.000Z,12.5
2019-04-29T14:41:35.000Z,14.6
2019-04-29T14:45:28.000Z,13.2
2019-04-29T14:48:59.000Z,18.5
2019-04-29T14:52:35.000Z,18.2
2019-04-29T14:56:14.000Z,15.8
2019-04-29T14:59:46.000Z,18.8
2019-04-29T15:03:23.000Z,17.6
2019-04-29T15:06:56.000Z,22.3
2019-04-29T15:10:35.000Z,21.8
2019-04-29T15:14:09.000Z,21.5
2019-04-29T15:18:08.000Z,23.8
2019-04-29T15:22:04.000Z,22.8
2019-04-29T15:25:40.000Z,25.5
2019-04-29T15:29:23.000Z,23.7
2019-04-29T15:33:12.000Z,26.2
2019-04-29T15:36:57.000Z,26.4
2019-04-29T15:40:33.000Z,26.6
2019-04-29T15:44:14.000Z,27.4
2019-04-29T15:48:00.000Z,28.9
2019-04-29T15:51:44.000Z,28.5
2019-04-29T15:55:20.000Z,25
2019-04-29T15:59:09.000Z,29.2
2019-04-29T16:02:49.000Z,26
2019-04-29T16:06:34.000Z,26.6
2019-04-29T16:10:11.000Z,23.8
2019-04-29T16:16:11.000Z,25.1
2019-04-29T16:19:48.000Z,24.3
2019-04-29T16:28:41.000Z,19.7
2019-04-29T16:32:03.000Z,24.2
2019-04-29T16:35:27.000Z,19.7
2019-04-29T16:38:50.000Z,20.5
2019-04-29T16:42:13.000Z,20
2019-04-29T16:45:36.000Z,20.8
2019-04-29T16:49:08.000Z,19.3
2019-04-29T16:52:32.000Z,22.7
2019-04-29T16:56:00.000Z,18.8
2019-04-29T16:59:22.000Z,15.7
2019-04-29T17:02:48.000Z,21.7
2019-04-29T17:06:12.000Z,15.6
2019-04-29T17:09:35.000Z,17.4
2019-04-29T17:12:58.000Z,18.1
2019-04-29T17:16:57.000Z,15.3
2019-04-29T17:20:22.000Z,15.5
2019-04-29T17:23:47.000Z,16.8
2019-04-29T17:27:12.000Z,14.8
2019-04-29T17:34:30.000Z,13.7
2019-04-29T17:38:19.000Z,14.8
2019-04-29T17:41:42.000Z,13.9
2019-04-29T17:45:05.000Z,13.5
2019-04-29T17:48:44.000Z,15.3
2019-04-29T17:52:09.000Z,15.2
2019-04-29T17:55:33.000Z,14.1
2019-04-29T17:59:19.000Z,14.1
2019-04-29T18:02:53.000Z,17.5
2019-04-29T18:06:16.000Z,17.7
2019-04-29T18:09:45.000Z,17.2
2019-04-29T18:13:11.000Z,14
2019-04-29T18:16:42.000Z,20.3
2019-04-29T18:20:14.000Z,18.8
2019-04-29T18:23:54.000Z,22.1
2019-04-29T18:27:25.000Z,19.2
2019-04-29T18:30:59.000Z,23.1
2019-04-29T18:34:30.000Z,22.1
2019-04-29T18:38:01.000Z,21.9
2019-04-29T18:41:28.000Z,24.1
2019-04-29T18:44:51.000Z,25.3
2019-04-29T18:48:19.000Z,26.7
2019-04-29T18:51:43.000Z,31.7
2019-04-29T18:55:11.000Z,28.3
2019-04-29T18:58:38.000Z,28.8
2019-04-29T19:02:15.000Z,31.8
2019-04-29T19:05:43.000Z,32.3
2019-04-29T19:09:09.000Z,33.5
2019-04-29T19:12:46.000Z,32.7
2019-04-29T19:16:24.000Z,28
2019-04-29T19:19:58.000Z,27.8
2019-04-29T19:23:29.000Z,30
2019-04-29T19:26:54.000Z,31.3
2019-04-29T19:30:28.000Z,33.2
2019-04-29T19:33:57.000Z,31.3
2019-04-29T19:37:36.000Z,34.4
2019-04-29T19:41:06.000Z,30.1
2019-04-29T19:44:38.000Z,31
2019-04-29T19:48:19.000Z,33.4
2019-04-29T19:51:48.000Z,31
2019-04-29T19:55:16.000Z,33.7
2019-04-29T19:59:05.000Z,31.6
2019-04-29T20:02:39.000Z,30.5
2019-04-29T20:06:18.000Z,32.7
2019-04-29T20:09:54.000Z,32.8
2019-04-29T20:13:41.000Z,37
2019-04-29T20:17:29.000Z,28.4
2019-04-29T20:21:13.000Z,32.4
2019-04-29T20:24:54.000Z,29.9
2019-04-29T20:28:27.000Z,26.4
2019-04-29T20:32:05.000Z,29.4
2019-04-29T20:35:32.000Z,32
2019-04-29T20:39:17.000Z,31.4
2019-04-29T20:42:49.000Z,29.2
2019-04-29T20:46:16.000Z,36.7
2019-04-29T20:50:01.000Z,33.2
2019-04-29T20:53:47.000Z,33.8
2019-04-29T20:57:16.000Z,37.5
2019-04-29T21:00:54.000Z,32.6
2019-04-29T21:08:48.000Z,38.4
2019-04-29T21:12:21.000Z,37.5
2019-04-29T21:16:05.000Z,38.6
2019-04-29T21:19:47.000Z,37.6
2019-04-29T21:23:25.000Z,36.9
2019-04-29T21:27:06.000Z,35.3
2019-04-29T21:30:53.000Z,36.5
2019-04-29T21:34:39.000Z,40
2019-04-29T21:38:13.000Z,37.4
2019-04-29T21:42:00.000Z,43.4
2019-04-29T21:45:41.000Z,40.5
2019-04-29T21:49:22.000Z,41.9
2019-04-29T21:53:17.000Z,44.6
2019-04-29T21:56:58.000Z,43.9
2019-04-29T22:00:40.000Z,40.2
2019-04-29T22:04:26.000Z,42.3
2019-04-29T22:08:07.000Z,44.5
2019-04-29T22:11:53.000Z,40.4
2019-04-29T22:15:41.000Z,44
2019-04-29T22:19:21.000Z,42.6
2019-04-29T22:23:06.000Z,45
2019-04-29T22:32:09.000Z,46.1
2019-04-29T22:35:34.000Z,45.4
2019-04-29T22:38:59.000Z,49.7
2019-04-29T22:42:21.000Z,52.2
2019-04-29T22:45:45.000Z,42.9
2019-04-29T22:49:18.000Z,48.2
2019-04-29T22:52:46.000Z,49.1
2019-04-29T22:56:17.000Z,49.8
2019-04-29T22:59:45.000Z,49.9
2019-04-29T23:03:17.000Z,49.8
2019-04-29T23:06:47.000Z,49.3
2019-04-29T23:10:10.000Z,54.2
2019-04-29T23:13:44.000Z,53.6
2019-04-29T23:17:16.000Z,50.9
2019-04-29T23:20:42.000Z,50.9
2019-04-29T23:24:15.000Z,51.2
2019-04-29T23:27:42.000Z,45.8
2019-04-29T23:31:10.000Z,50.6
2019-04-29T23:34:42.000Z,50.3
2019-04-29T23:38:09.000Z,45.1
2019-04-29T23:41:35.000Z,50.2
2019-04-29T23:45:01.000Z,42.1
2019-04-29T23:48:27.000Z,49.4
2019-04-29T23:51:56.000Z,50.8
2019-04-29T23:55:29.000Z,53.3
2019-04-29T23:58:56.000Z,56.6
